createdAt,value
2019-02-17T00:02:11.007Z,9.54
2019-02-17T00:04:40.668Z,9.51
2019-02-17T00:07:10.388Z,9.52
2019-02-17T00:09:40.077Z,9.48
2019-02-17T00:12:09.758Z,9.47
2019-02-17T00:14:39.420Z,9.43
2019-02-17T00:17:09.126Z,9.51
2019-02-17T00:19:38.798Z,9.46
2019-02-17T00:22:15.276Z,9.59
2019-02-17T00:24:44.962Z,9.46
2019-02-17T00:27:14.663Z,9.54
2019-02-17T00:29:44.357Z,9.46
2019-02-17T00:32:14.043Z,9.43
2019-02-17T00:34:43.732Z,9.44
2019-02-17T00:37:13.407Z,9.46
2019-02-17T00:39:43.106Z,9.47
2019-02-17T00:42:12.895Z,9.51
2019-02-17T00:44:42.577Z,9.57
2019-02-17T00:47:12.282Z,9.58
2019-02-17T00:49:42.005Z,9.61
2019-02-17T00:52:11.685Z,9.55
2019-02-17T00:54:41.341Z,9.55
2019-02-17T00:57:11.049Z,9.49
2019-02-17T00:59:40.662Z,9.50
2019-02-17T01:02:10.317Z,9.48
2019-02-17T01:04:39.964Z,9.47
2019-02-17T01:07:09.579Z,9.48
2019-02-17T01:09:39.238Z,9.53
2019-02-17T01:12:08.930Z,9.56
2019-02-17T01:14:38.577Z,9.59
2019-02-17T01:17:08.197Z,9.53
2019-02-17T01:19:37.905Z,9.54
2019-02-17T01:22:07.577Z,9.58
2019-02-17T01:24:37.253Z,9.56
2019-02-17T01:27:06.924Z,9.57
2019-02-17T01:29:36.638Z,9.62
2019-02-17T01:32:06.309Z,9.56
2019-02-17T01:34:36.016Z,9.59
2019-02-17T01:37:06.113Z,9.62
2019-02-17T01:39:35.879Z,9.62
2019-02-17T01:42:05.555Z,9.67
2019-02-17T01:44:35.265Z,9.73
2019-02-17T01:47:04.983Z,9.70
2019-02-17T01:49:34.662Z,9.72
2019-02-17T01:52:04.308Z,9.76
2019-02-17T01:54:34.193Z,9.66
2019-02-17T01:57:03.884Z,9.69
2019-02-17T01:59:33.648Z,9.72
2019-02-17T02:02:03.330Z,9.59
2019-02-17T02:04:33.006Z,9.61
2019-02-17T02:07:02.722Z,9.59
2019-02-17T02:09:32.409Z,9.57
2019-02-17T02:12:02.110Z,9.56
2019-02-17T02:14:32.449Z,9.58
2019-02-17T02:17:04.058Z,9.60
2019-02-17T02:19:33.746Z,9.57
2019-02-17T02:22:03.423Z,9.52
2019-02-17T02:24:33.130Z,9.51
2019-02-17T02:27:07.941Z,9.55
2019-02-17T02:29:41.051Z,9.47
2019-02-17T02:32:09.027Z,9.45
2019-02-17T02:34:38.686Z,9.45
2019-02-17T02:37:08.392Z,9.44
2019-02-17T02:39:38.111Z,9.45
2019-02-17T02:42:07.796Z,9.45
2019-02-17T02:44:37.468Z,9.48
2019-02-17T02:47:07.162Z,9.48
2019-02-17T02:49:36.858Z,9.51
2019-02-17T02:52:06.579Z,9.54
2019-02-17T02:54:36.455Z,9.46
2019-02-17T02:57:06.139Z,9.46
2019-02-17T02:59:35.843Z,9.49
2019-02-17T03:02:05.545Z,9.49
2019-02-17T03:04:35.197Z,9.40
2019-02-17T03:07:04.899Z,9.37
2019-02-17T03:09:34.558Z,9.38
2019-02-17T03:12:04.696Z,9.37
2019-02-17T03:14:34.471Z,9.37
2019-02-17T03:17:04.566Z,9.34
2019-02-17T03:19:34.539Z,9.35
2019-02-17T03:22:04.690Z,9.37
2019-02-17T03:24:34.364Z,9.37
2019-02-17T03:27:04.053Z,9.36
2019-02-17T03:29:34.586Z,9.38
2019-02-17T03:32:04.275Z,9.31
2019-02-17T03:34:33.956Z,9.35
2019-02-17T03:37:03.690Z,9.35
2019-02-17T03:39:33.340Z,9.34
2019-02-17T03:42:03.008Z,9.34
2019-02-17T03:44:32.806Z,9.30
2019-02-17T03:47:02.546Z,9.28
2019-02-17T03:49:32.196Z,9.29
2019-02-17T03:52:01.878Z,9.27
2019-02-17T03:54:31.589Z,9.25
2019-02-17T03:57:01.261Z,9.26
2019-02-17T03:59:30.914Z,9.22
2019-02-17T04:02:00.606Z,9.22
2019-02-17T04:04:30.318Z,9.22
2019-02-17T04:06:59.962Z,9.18
2019-02-17T04:09:29.639Z,9.21
2019-02-17T04:11:59.328Z,9.25
2019-02-17T04:14:29.074Z,9.26
2019-02-17T04:16:58.948Z,9.29
2019-02-17T04:19:28.662Z,9.29
2019-02-17T04:21:58.365Z,9.28
2019-02-17T04:24:28.043Z,9.28
2019-02-17T04:26:57.756Z,9.29
2019-02-17T04:29:27.466Z,9.29
2019-02-17T04:31:57.135Z,9.25
2019-02-17T04:34:26.809Z,9.24
2019-02-17T04:36:56.468Z,9.26
2019-02-17T04:39:26.162Z,9.26
2019-02-17T04:41:55.854Z,9.25
2019-02-17T04:44:31.698Z,9.26
2019-02-17T04:47:01.360Z,9.25
2019-02-17T04:49:31.060Z,9.28
2019-02-17T04:52:00.762Z,9.24
2019-02-17T04:54:30.477Z,9.26
2019-02-17T04:57:00.166Z,9.23
2019-02-17T04:59:29.959Z,9.22
2019-02-17T05:01:59.636Z,9.25
2019-02-17T05:04:29.325Z,9.26
2019-02-17T05:06:59.084Z,9.23
2019-02-17T05:09:28.876Z,9.19
2019-02-17T05:11:58.520Z,9.20
2019-02-17T05:14:28.228Z,9.24
2019-02-17T05:16:57.909Z,9.19
2019-02-17T05:19:27.614Z,9.20
2019-02-17T05:21:57.309Z,9.25
2019-02-17T05:24:27.076Z,9.22
2019-02-17T05:26:56.768Z,9.19
2019-02-17T05:29:26.488Z,9.16
2019-02-17T05:31:56.144Z,9.17
2019-02-17T05:34:25.875Z,9.13
2019-02-17T05:36:55.583Z,9.17
2019-02-17T05:39:25.300Z,9.23
2019-02-17T05:41:54.978Z,9.22
2019-02-17T05:44:24.691Z,9.25
2019-02-17T05:46:54.354Z,9.24
2019-02-17T05:49:24.050Z,9.26
2019-02-17T05:51:53.744Z,9.26
2019-02-17T05:54:23.482Z,9.24
2019-02-17T05:56:53.098Z,9.24
2019-02-17T05:59:22.780Z,9.21
2019-02-17T06:01:52.435Z,9.26
2019-02-17T06:04:22.173Z,9.30
2019-02-17T06:06:51.832Z,9.26
2019-02-17T06:09:21.564Z,9.23
2019-02-17T06:11:51.229Z,9.26
2019-02-17T06:14:20.939Z,9.28
2019-02-17T06:16:50.640Z,9.21
2019-02-17T06:19:20.309Z,9.30
2019-02-17T06:21:49.993Z,9.31
2019-02-17T06:24:19.748Z,9.21
2019-02-17T06:26:49.401Z,9.33
2019-02-17T06:29:19.098Z,9.16
2019-02-17T06:31:48.778Z,9.26
2019-02-17T06:34:18.487Z,9.16
2019-02-17T06:36:48.161Z,9.22
2019-02-17T06:39:17.836Z,9.22
2019-02-17T06:41:47.492Z,9.16
2019-02-17T06:44:17.218Z,9.20
2019-02-17T06:46:48.532Z,9.22
2019-02-17T06:49:18.260Z,9.16
2019-02-17T06:51:47.946Z,9.18
2019-02-17T06:54:17.622Z,9.22
2019-02-17T06:56:48.937Z,9.11
2019-02-17T06:59:18.602Z,9.10
2019-02-17T07:01:48.283Z,9.16
2019-02-17T07:04:18.986Z,9.06
2019-02-17T07:06:50.305Z,9.06
2019-02-17T07:09:21.907Z,9.10
2019-02-17T07:11:51.575Z,9.05
2019-02-17T07:14:21.331Z,9.04
2019-02-17T07:16:50.989Z,9.09
2019-02-17T07:19:20.698Z,9.10
2019-02-17T07:21:50.389Z,9.16
2019-02-17T07:24:20.110Z,9.13
2019-02-17T07:26:49.806Z,9.12
2019-02-17T07:29:19.488Z,9.12
2019-02-17T07:31:49.172Z,9.19
2019-02-17T07:34:18.926Z,9.14
2019-02-17T07:36:48.641Z,9.14
2019-02-17T07:39:18.325Z,9.34
2019-02-17T07:41:48.030Z,9.25
2019-02-17T07:44:17.730Z,9.19
2019-02-17T07:46:47.422Z,9.32
2019-02-17T07:49:17.191Z,9.14
2019-02-17T07:51:46.907Z,9.16
2019-02-17T07:54:16.676Z,9.17
2019-02-17T07:56:48.428Z,9.24
2019-02-17T07:59:17.738Z,9.28
2019-02-17T08:01:47.420Z,9.23
2019-02-17T08:04:17.115Z,9.25
2019-02-17T08:06:46.880Z,9.23
2019-02-17T08:09:16.583Z,9.28
2019-02-17T08:11:46.275Z,9.27
2019-02-17T08:14:15.960Z,9.27
2019-02-17T08:16:46.012Z,9.36
2019-02-17T08:19:15.672Z,9.44
2019-02-17T08:21:45.428Z,9.49
2019-02-17T08:24:15.104Z,9.64
2019-02-17T08:26:44.794Z,9.65
2019-02-17T08:29:14.473Z,9.68
2019-02-17T08:31:44.202Z,9.69
2019-02-17T08:34:13.871Z,9.74
2019-02-17T08:36:43.551Z,9.76
2019-02-17T08:39:13.200Z,9.69
2019-02-17T08:41:42.916Z,9.78
2019-02-17T08:44:12.573Z,9.81
2019-02-17T08:46:42.304Z,9.85
2019-02-17T08:49:12.011Z,9.91
2019-02-17T08:51:41.654Z,10.01
2019-02-17T08:54:11.350Z,10.10
2019-02-17T08:56:41.042Z,10.13
2019-02-17T08:59:10.702Z,10.24
2019-02-17T09:01:40.588Z,10.22
2019-02-17T09:04:10.249Z,10.37
2019-02-17T09:06:39.920Z,10.48
2019-02-17T09:09:09.611Z,10.47
2019-02-17T09:11:39.308Z,10.45
2019-02-17T09:14:08.972Z,10.63
2019-02-17T09:16:38.681Z,10.84
2019-02-17T09:19:08.373Z,10.79
2019-02-17T09:21:38.050Z,10.83
2019-02-17T09:24:07.739Z,10.92
2019-02-17T09:26:37.447Z,11.23
2019-02-17T09:29:07.121Z,11.38
2019-02-17T09:31:36.801Z,11.22
2019-02-17T09:34:06.487Z,11.22
2019-02-17T09:36:36.191Z,11.47
2019-02-17T09:39:08.181Z,11.45
2019-02-17T09:41:37.888Z,11.50
2019-02-17T09:44:07.533Z,11.76
2019-02-17T09:46:37.382Z,11.71
2019-02-17T09:49:07.054Z,11.86
2019-02-17T09:51:36.842Z,11.88
2019-02-17T09:54:06.520Z,11.99
2019-02-17T09:56:36.229Z,11.86
2019-02-17T09:59:05.918Z,11.92
2019-02-17T10:01:35.567Z,12.26
2019-02-17T10:04:05.218Z,12.22
2019-02-17T10:06:35.002Z,12.34
2019-02-17T10:09:06.306Z,12.47
2019-02-17T10:11:36.312Z,12.24
2019-02-17T10:14:06.003Z,12.31
2019-02-17T10:16:35.646Z,12.22
2019-02-17T10:19:05.264Z,12.24
2019-02-17T10:21:34.889Z,12.18
2019-02-17T10:24:04.543Z,12.20
2019-02-17T10:26:34.156Z,12.31
2019-02-17T10:29:03.794Z,12.37
2019-02-17T10:31:33.425Z,12.36
2019-02-17T10:34:03.127Z,12.63
2019-02-17T10:36:32.760Z,12.54
2019-02-17T10:39:02.926Z,12.57
2019-02-17T10:41:32.619Z,12.68
2019-02-17T10:44:02.333Z,12.57
2019-02-17T10:46:32.048Z,12.65
2019-02-17T10:49:01.696Z,12.49
2019-02-17T10:51:31.313Z,12.40
2019-02-17T10:54:00.956Z,12.51
2019-02-17T10:56:30.599Z,12.64
2019-02-17T10:59:00.225Z,12.79
2019-02-17T11:01:29.871Z,12.92
2019-02-17T11:04:07.630Z,12.86
2019-02-17T11:06:37.302Z,12.76
2019-02-17T11:09:09.285Z,12.84
2019-02-17T11:11:38.978Z,12.91
2019-02-17T11:14:08.679Z,12.94
2019-02-17T11:16:38.416Z,12.93
2019-02-17T11:19:08.110Z,12.87
2019-02-17T11:21:37.767Z,12.80
2019-02-17T11:24:07.527Z,12.83
2019-02-17T11:26:37.185Z,12.76
2019-02-17T11:29:06.965Z,12.93
2019-02-17T11:31:36.681Z,12.94
2019-02-17T11:34:06.515Z,12.93
2019-02-17T11:36:36.189Z,12.96
2019-02-17T11:39:09.081Z,13.04
2019-02-17T11:41:38.799Z,13.08
2019-02-17T11:44:08.468Z,13.09
2019-02-17T11:46:38.165Z,13.06
2019-02-17T11:49:07.879Z,13.12
2019-02-17T11:51:37.536Z,13.11
2019-02-17T11:54:07.247Z,13.09
2019-02-17T11:56:36.926Z,13.15
2019-02-17T11:59:06.639Z,13.15
2019-02-17T12:01:36.298Z,13.06
2019-02-17T12:04:06.017Z,13.14
2019-02-17T12:06:35.680Z,13.34
2019-02-17T12:09:07.400Z,13.13
2019-02-17T12:11:38.173Z,13.13
2019-02-17T12:14:07.870Z,13.21
2019-02-17T12:16:37.578Z,13.21
2019-02-17T12:19:07.275Z,13.09
2019-02-17T12:21:38.610Z,13.24
2019-02-17T12:24:15.708Z,13.20
2019-02-17T12:26:53.014Z,13.36
2019-02-17T12:29:38.307Z,13.30
2019-02-17T12:32:07.928Z,13.37
2019-02-17T12:34:37.662Z,13.28
2019-02-17T12:37:07.330Z,13.24
2019-02-17T12:39:37.026Z,13.29
2019-02-17T12:42:06.764Z,13.27
2019-02-17T12:44:36.467Z,13.22
2019-02-17T12:47:06.207Z,13.29
2019-02-17T12:49:36.070Z,13.44
2019-02-17T12:52:05.772Z,13.59
2019-02-17T12:54:35.481Z,13.65
2019-02-17T12:57:05.177Z,13.52
2019-02-17T12:59:34.848Z,13.61
2019-02-17T13:02:04.580Z,13.61
2019-02-17T13:04:34.277Z,13.58
2019-02-17T13:07:05.064Z,13.68
2019-02-17T13:09:34.774Z,13.65
2019-02-17T13:12:04.471Z,13.60
2019-02-17T13:14:34.167Z,13.67
2019-02-17T13:17:03.878Z,13.48
2019-02-17T13:19:33.511Z,13.67
2019-02-17T13:22:03.139Z,13.72
2019-02-17T13:24:32.772Z,13.57
2019-02-17T13:27:02.414Z,13.65
2019-02-17T13:29:32.048Z,13.80
2019-02-17T13:32:01.674Z,13.67
2019-02-17T13:34:31.433Z,13.76
2019-02-17T13:37:01.103Z,13.69
2019-02-17T13:39:30.853Z,13.69
2019-02-17T13:42:00.557Z,13.65
2019-02-17T13:44:30.313Z,13.76
2019-02-17T13:47:00.074Z,13.73
2019-02-17T13:49:29.804Z,13.69
2019-02-17T13:51:59.519Z,13.71
2019-02-17T13:54:29.210Z,13.76
2019-02-17T13:56:58.937Z,13.75
2019-02-17T13:59:28.606Z,13.86
2019-02-17T14:01:58.292Z,13.91
2019-02-17T14:04:27.985Z,13.94
2019-02-17T14:06:57.707Z,14.02
2019-02-17T14:09:27.385Z,14.21
2019-02-17T14:11:57.076Z,14.17
2019-02-17T14:14:26.763Z,14.15
2019-02-17T14:16:56.505Z,14.04
2019-02-17T14:19:26.193Z,13.92
2019-02-17T14:21:55.913Z,13.89
2019-02-17T14:24:25.612Z,13.83
2019-02-17T14:26:55.333Z,13.74
2019-02-17T14:29:25.028Z,13.77
2019-02-17T14:31:54.717Z,13.71
2019-02-17T14:34:27.495Z,13.86
2019-02-17T14:36:57.180Z,13.73
2019-02-17T14:39:26.922Z,13.73
2019-02-17T14:41:56.636Z,13.47
2019-02-17T14:44:26.308Z,13.39
2019-02-17T14:46:56.034Z,13.36
2019-02-17T14:49:25.735Z,13.31
2019-02-17T14:51:55.437Z,13.37
2019-02-17T14:54:25.101Z,13.39
2019-02-17T14:56:54.891Z,13.28
2019-02-17T14:59:24.565Z,13.11
2019-02-17T15:01:54.284Z,13.17
2019-02-17T15:04:23.981Z,13.25
2019-02-17T15:06:53.681Z,13.19
2019-02-17T15:09:23.405Z,13.11
2019-02-17T15:11:54.799Z,13.20
2019-02-17T15:14:26.444Z,13.11
2019-02-17T15:17:01.652Z,13.13
2019-02-17T15:19:35.903Z,12.97
2019-02-17T15:22:08.833Z,12.99
2019-02-17T15:24:44.903Z,13.07
2019-02-17T15:27:23.090Z,12.81
2019-02-17T15:29:56.852Z,12.88
2019-02-17T15:32:30.785Z,12.90
2019-02-17T15:35:07.202Z,12.64
2019-02-17T15:37:38.890Z,12.47
2019-02-17T15:40:16.008Z,12.48
2019-02-17T15:42:56.785Z,12.26
2019-02-17T15:45:32.498Z,12.29
2019-02-17T15:48:06.623Z,12.20
2019-02-17T15:50:40.611Z,12.14
2019-02-17T15:53:17.690Z,12.11
2019-02-17T15:55:51.200Z,12.02
2019-02-17T15:58:24.938Z,11.86
2019-02-17T16:01:00.645Z,11.80
2019-02-17T16:03:33.816Z,11.68
2019-02-17T16:06:09.902Z,11.71
2019-02-17T16:08:44.731Z,11.63
2019-02-17T16:11:22.175Z,11.58
2019-02-17T16:13:54.004Z,11.38
2019-02-17T16:16:29.499Z,11.23
2019-02-17T16:19:03.443Z,11.25
2019-02-17T16:21:36.441Z,11.05
2019-02-17T16:24:07.502Z,10.79
2019-02-17T16:26:38.975Z,10.79
2019-02-17T16:29:09.781Z,10.76
2019-02-17T16:31:39.671Z,10.72
2019-02-17T16:34:09.719Z,10.74
2019-02-17T16:36:39.489Z,10.57
2019-02-17T16:39:11.722Z,10.53
2019-02-17T16:41:41.444Z,10.46
2019-02-17T16:44:11.276Z,10.44
2019-02-17T16:46:41.128Z,10.43
2019-02-17T16:49:10.864Z,10.27
2019-02-17T16:51:40.775Z,10.09
2019-02-17T16:54:11.566Z,10.03
2019-02-17T16:56:41.866Z,9.96
2019-02-17T16:59:14.200Z,9.89
2019-02-17T17:01:44.024Z,9.98
2019-02-17T17:04:14.629Z,9.90
2019-02-17T17:06:46.400Z,9.80
2019-02-17T17:09:16.119Z,9.57
2019-02-17T17:11:45.811Z,9.28
2019-02-17T17:14:15.527Z,9.13
2019-02-17T17:16:45.186Z,8.93
2019-02-17T17:19:14.875Z,8.95
2019-02-17T17:21:44.543Z,9.17
2019-02-17T17:24:14.393Z,9.18
2019-02-17T17:26:44.082Z,9.21
2019-02-17T17:29:15.362Z,9.13
2019-02-17T17:31:45.038Z,9.07
2019-02-17T17:34:14.833Z,9.13
2019-02-17T17:36:44.544Z,9.09
2019-02-17T17:39:14.262Z,9.02
2019-02-17T17:41:43.976Z,9.04
2019-02-17T17:44:13.660Z,8.92
2019-02-17T17:46:43.336Z,8.91
2019-02-17T17:49:19.297Z,8.95
2019-02-17T17:51:44.520Z,8.82
2019-02-17T17:54:14.246Z,9.04
2019-02-17T17:56:43.938Z,8.95
2019-02-17T17:59:13.841Z,8.88
2019-02-17T18:01:43.502Z,8.67
2019-02-17T18:04:13.195Z,8.55
2019-02-17T18:06:42.909Z,8.48
2019-02-17T18:09:12.591Z,8.41
2019-02-17T18:11:44.097Z,8.66
2019-02-17T18:14:13.798Z,8.73
2019-02-17T18:16:43.522Z,8.71
2019-02-17T18:19:13.757Z,8.71
2019-02-17T18:21:43.469Z,8.72
2019-02-17T18:24:13.148Z,8.64
2019-02-17T18:26:42.876Z,8.45
2019-02-17T18:29:12.566Z,8.23
2019-02-17T18:31:42.323Z,8.08
2019-02-17T18:34:12.134Z,7.96
2019-02-17T18:36:41.867Z,8.02
2019-02-17T18:39:11.532Z,8.19
2019-02-17T18:41:41.247Z,8.27
2019-02-17T18:44:10.929Z,8.38
2019-02-17T18:46:40.637Z,8.23
2019-02-17T18:49:10.325Z,8.25
2019-02-17T18:51:41.756Z,8.06
2019-02-17T18:54:11.613Z,8.23
2019-02-17T18:56:41.369Z,8.25
2019-02-17T18:59:10.982Z,8.25
2019-02-17T19:01:40.693Z,8.26
2019-02-17T19:04:10.387Z,8.20
2019-02-17T19:06:40.067Z,8.12
2019-02-17T19:09:11.380Z,8.01
2019-02-17T19:11:41.465Z,8.18
2019-02-17T19:14:11.245Z,8.12
2019-02-17T19:16:40.946Z,8.22
2019-02-17T19:19:10.701Z,8.20
2019-02-17T19:21:40.396Z,8.04
2019-02-17T19:24:10.079Z,8.07
2019-02-17T19:26:39.827Z,8.13
2019-02-17T19:29:09.502Z,7.88
2019-02-17T19:31:39.199Z,7.96
2019-02-17T19:34:13.940Z,7.85
2019-02-17T19:36:43.645Z,7.92
2019-02-17T19:39:13.348Z,7.82
2019-02-17T19:41:43.037Z,7.72
2019-02-17T19:44:19.864Z,7.77
2019-02-17T19:46:49.613Z,7.70
2019-02-17T19:49:19.338Z,7.58
2019-02-17T19:51:49.737Z,7.56
2019-02-17T19:54:19.640Z,7.43
2019-02-17T19:56:50.990Z,7.64
2019-02-17T19:59:20.682Z,7.58
2019-02-17T20:01:50.465Z,7.40
2019-02-17T20:04:21.850Z,7.24
2019-02-17T20:06:54.926Z,7.25
2019-02-17T20:09:27.058Z,7.39
2019-02-17T20:11:57.708Z,7.60
2019-02-17T20:14:31.749Z,7.49
2019-02-17T20:17:02.878Z,7.61
2019-02-17T20:19:35.480Z,7.60
2019-02-17T20:22:06.737Z,7.63
2019-02-17T20:24:36.647Z,7.56
2019-02-17T20:27:06.392Z,7.61
2019-02-17T20:29:36.068Z,7.66
2019-02-17T20:32:05.801Z,7.51
2019-02-17T20:34:35.521Z,7.73
2019-02-17T20:37:05.185Z,7.57
2019-02-17T20:39:34.986Z,7.51
2019-02-17T20:42:04.637Z,7.52
2019-02-17T20:44:34.359Z,7.51
2019-02-17T20:47:04.035Z,7.37
2019-02-17T20:49:33.758Z,7.17
2019-02-17T20:52:03.444Z,7.02
2019-02-17T20:54:33.163Z,6.82
2019-02-17T20:57:03.096Z,6.70
2019-02-17T20:59:32.806Z,6.57
2019-02-17T21:02:02.520Z,6.60
2019-02-17T21:04:32.247Z,6.48
2019-02-17T21:07:02.037Z,6.38
2019-02-17T21:09:31.739Z,6.24
2019-02-17T21:12:01.445Z,6.13
2019-02-17T21:14:31.174Z,6.00
2019-02-17T21:17:00.847Z,5.81
2019-02-17T21:19:30.563Z,5.70
2019-02-17T21:22:00.253Z,5.67
2019-02-17T21:24:29.942Z,5.55
2019-02-17T21:26:59.593Z,5.47
2019-02-17T21:29:29.797Z,5.40
2019-02-17T21:31:59.480Z,5.36
2019-02-17T21:34:29.177Z,5.34
2019-02-17T21:36:58.936Z,5.42
2019-02-17T21:39:28.621Z,5.38
2019-02-17T21:41:58.310Z,5.32
2019-02-17T21:44:28.061Z,5.39
2019-02-17T21:46:57.692Z,5.52
2019-02-17T21:49:27.398Z,5.38
2019-02-17T21:51:57.096Z,5.47
2019-02-17T21:54:26.898Z,5.38
2019-02-17T21:56:56.566Z,5.31
2019-02-17T21:59:26.332Z,5.25
2019-02-17T22:01:56.093Z,5.25
2019-02-17T22:04:25.756Z,5.26
2019-02-17T22:06:55.462Z,5.23
2019-02-17T22:09:25.152Z,5.60
2019-02-17T22:11:54.928Z,5.63
2019-02-17T22:14:24.629Z,5.65
2019-02-17T22:16:54.340Z,5.95
2019-02-17T22:19:24.018Z,5.79
2019-02-17T22:21:53.769Z,5.73
2019-02-17T22:24:23.453Z,5.67
2019-02-17T22:26:53.180Z,5.53
2019-02-17T22:29:22.934Z,5.47
2019-02-17T22:31:52.622Z,5.49
2019-02-17T22:34:22.324Z,5.63
2019-02-17T22:36:52.012Z,5.52
2019-02-17T22:39:21.753Z,5.56
2019-02-17T22:41:51.483Z,5.67
2019-02-17T22:44:21.176Z,5.72
2019-02-17T22:46:50.902Z,5.58
2019-02-17T22:49:20.572Z,5.61
2019-02-17T22:51:50.246Z,5.54
2019-02-17T22:54:19.951Z,5.56
2019-02-17T22:56:49.706Z,5.79
2019-02-17T22:59:19.407Z,5.93
2019-02-17T23:01:49.111Z,5.98
2019-02-17T23:04:18.808Z,5.92
2019-02-17T23:06:54.140Z,5.97
2019-02-17T23:09:19.974Z,5.90
2019-02-17T23:11:49.768Z,6.00
2019-02-17T23:14:19.508Z,5.85
2019-02-17T23:16:49.236Z,5.71
2019-02-17T23:19:18.932Z,5.65
2019-02-17T23:21:48.649Z,5.56
2019-02-17T23:24:18.975Z,5.56
2019-02-17T23:26:48.685Z,5.45
2019-02-17T23:29:18.341Z,5.65
2019-02-17T23:31:48.061Z,5.79
2019-02-17T23:34:17.761Z,5.95
2019-02-17T23:36:47.483Z,5.89
2019-02-17T23:39:17.169Z,5.92
2019-02-17T23:41:46.885Z,5.81
2019-02-17T23:44:16.610Z,5.81
2019-02-17T23:46:46.359Z,5.86
2019-02-17T23:49:16.062Z,5.81
2019-02-17T23:51:45.740Z,5.61
2019-02-17T23:54:15.453Z,5.70
2019-02-17T23:56:45.153Z,5.70
2019-02-17T23:59:14.851Z,5.74
